XNO1903 EDDH-EGSS
Flight info
| Callsign | XNO1903 |
|---|---|
| Flight time | 1h 12m |
| Altitude | 38000 |
| Route | WSN5C WSN N125 EKNON DCT NOGRO M40 RINIS |
| Aircraft | A320/M-SDE3FGHIRWY/LB1 |
Departure
| Time | 2026-05-05 10:59 |
|---|---|
| Airport | Hamburg Helmut Schmidt Airport (EDDH) |
Arrival
| Time | 2026-05-05 12:12 |
|---|---|
| Airport | London Stansted Airport (EGSS) |
| Time | Latitude | Longitude | Altitude | Speed | Heading |
|---|---|---|---|---|---|
| 2026-05-05 10:22 | 53.63374 | 10.00342 | 51 ft | 0 kts | 86° |
| 2026-05-05 10:50 | 53.63373 | 10.00328 | 49 ft | 4 kts | 87° |
| 2026-05-05 10:50 | 53.63373 | 10.00283 | 47 ft | 4 kts | 92° |
| 2026-05-05 10:50 | 53.63375 | 10.00238 | 46 ft | 4 kts | 99° |
| 2026-05-05 10:51 | 53.63381 | 10.00193 | 49 ft | 4 kts | 113° |
| 2026-05-05 10:51 | 53.63395 | 10.00160 | 49 ft | 4 kts | 163° |
| 2026-05-05 10:51 | 53.63400 | 10.00157 | 51 ft | 0 kts | 176° |
| 2026-05-05 10:53 | 53.63377 | 10.00160 | 51 ft | 13 kts | 176° |
| 2026-05-05 10:53 | 53.63277 | 10.00172 | 51 ft | 14 kts | 175° |
| 2026-05-05 10:53 | 53.63185 | 10.00184 | 51 ft | 13 kts | 175° |
| 2026-05-05 10:53 | 53.63080 | 10.00185 | 51 ft | 19 kts | 196° |
| 2026-05-05 10:54 | 53.62954 | 10.00056 | 50 ft | 21 kts | 212° |
| 2026-05-05 10:54 | 53.62843 | 10.00012 | 50 ft | 12 kts | 232° |
| 2026-05-05 10:54 | 53.62743 | 9.99912 | 47 ft | 25 kts | 207° |
| 2026-05-05 10:54 | 53.62632 | 9.99694 | 49 ft | 26 kts | 256° |
| 2026-05-05 10:55 | 53.62596 | 9.99389 | 51 ft | 27 kts | 259° |
| 2026-05-05 10:55 | 53.62562 | 9.99062 | 48 ft | 29 kts | 260° |
| 2026-05-05 10:55 | 53.62527 | 9.98767 | 51 ft | 25 kts | 259° |
| 2026-05-05 10:55 | 53.62494 | 9.98465 | 51 ft | 27 kts | 259° |
| 2026-05-05 10:56 | 53.62447 | 9.98166 | 47 ft | 26 kts | 240° |
| 2026-05-05 10:56 | 53.62341 | 9.97908 | 50 ft | 26 kts | 230° |
| 2026-05-05 10:56 | 53.62221 | 9.97664 | 50 ft | 28 kts | 229° |
| 2026-05-05 10:56 | 53.62091 | 9.97409 | 50 ft | 29 kts | 230° |
| 2026-05-05 10:57 | 53.62023 | 9.97273 | 50 ft | 0 kts | 231° |
| 2026-05-05 10:57 | 53.62022 | 9.97271 | 50 ft | 2 kts | 231° |
| 2026-05-05 10:57 | 53.61906 | 9.97030 | 50 ft | 24 kts | 231° |
| 2026-05-05 10:57 | 53.61795 | 9.96805 | 50 ft | 26 kts | 230° |
| 2026-05-05 10:58 | 53.61721 | 9.96657 | 50 ft | 22 kts | 231° |
| 2026-05-05 10:58 | 53.61676 | 9.96497 | 50 ft | 12 kts | 277° |
| 2026-05-05 10:58 | 53.61732 | 9.96421 | 50 ft | 12 kts | 354° |
| 2026-05-05 10:58 | 53.61851 | 9.96443 | 47 ft | 21 kts | 30° |
| 2026-05-05 10:59 | 53.62029 | 9.96799 | 46 ft | 74 kts | 50° |
| 2026-05-05 10:59 | 53.62507 | 9.97760 | 47 ft | 136 kts | 50° |
| 2026-05-05 10:59 | 53.63176 | 9.99132 | 356 ft | 159 kts | 53° |
| 2026-05-05 10:59 | 53.63868 | 10.00600 | 1080 ft | 160 kts | 51° |
| 2026-05-05 11:00 | 53.64583 | 10.02046 | 1867 ft | 161 kts | 49° |
| 2026-05-05 11:00 | 53.65338 | 10.03566 | 2306 ft | 180 kts | 50° |
| 2026-05-05 11:00 | 53.66193 | 10.05288 | 2660 ft | 202 kts | 50° |
| 2026-05-05 11:00 | 53.67124 | 10.07162 | 3199 ft | 213 kts | 50° |
| 2026-05-05 11:01 | 53.68083 | 10.09084 | 3808 ft | 219 kts | 47° |
| 2026-05-05 11:01 | 53.69354 | 10.10492 | 4527 ft | 223 kts | 13° |
| 2026-05-05 11:01 | 53.70896 | 10.10371 | 5301 ft | 229 kts | 336° |
| 2026-05-05 11:01 | 53.72172 | 10.08634 | 5878 ft | 250 kts | 301° |
| 2026-05-05 11:02 | 53.73022 | 10.06002 | 6605 ft | 262 kts | 296° |
| 2026-05-05 11:02 | 53.73847 | 10.03207 | 7489 ft | 268 kts | 294° |
| 2026-05-05 11:02 | 53.74553 | 10.00277 | 8377 ft | 272 kts | 282° |
| 2026-05-05 11:02 | 53.74750 | 9.97086 | 9276 ft | 274 kts | 265° |
| 2026-05-05 11:03 | 53.74405 | 9.93888 | 9781 ft | 277 kts | 249° |
| 2026-05-05 11:03 | 53.73664 | 9.90914 | 9917 ft | 280 kts | 245° |
| 2026-05-05 11:03 | 53.72842 | 9.87718 | 9946 ft | 308 kts | 246° |
| 2026-05-05 11:03 | 53.71973 | 9.84315 | 10314 ft | 321 kts | 246° |
| 2026-05-05 11:04 | 53.71089 | 9.80844 | 11208 ft | 323 kts | 246° |
| 2026-05-05 11:04 | 53.70196 | 9.77335 | 12059 ft | 327 kts | 247° |
| 2026-05-05 11:04 | 53.69287 | 9.73775 | 12876 ft | 331 kts | 247° |
| 2026-05-05 11:04 | 53.68381 | 9.70226 | 13689 ft | 335 kts | 247° |
| 2026-05-05 11:05 | 53.67449 | 9.66587 | 14423 ft | 339 kts | 247° |
| 2026-05-05 11:05 | 53.66510 | 9.62911 | 15160 ft | 342 kts | 247° |
| 2026-05-05 11:05 | 53.65562 | 9.59214 | 15917 ft | 344 kts | 245° |
| 2026-05-05 11:05 | 53.64328 | 9.55731 | 16646 ft | 348 kts | 236° |
| 2026-05-05 11:06 | 53.62908 | 9.52409 | 17379 ft | 350 kts | 236° |
| 2026-05-05 11:06 | 53.61495 | 9.49119 | 18094 ft | 353 kts | 236° |
| 2026-05-05 11:06 | 53.60047 | 9.45757 | 18733 ft | 355 kts | 236° |
| 2026-05-05 11:06 | 53.58586 | 9.42377 | 19344 ft | 357 kts | 236° |
| 2026-05-05 11:07 | 53.57116 | 9.38982 | 19978 ft | 359 kts | 236° |
| 2026-05-05 11:07 | 53.55637 | 9.35564 | 20598 ft | 362 kts | 236° |
| 2026-05-05 11:07 | 53.54170 | 9.32162 | 21205 ft | 364 kts | 236° |
| 2026-05-05 11:07 | 53.52661 | 9.28663 | 21795 ft | 366 kts | 236° |
| 2026-05-05 11:08 | 53.51175 | 9.25232 | 22377 ft | 368 kts | 236° |
| 2026-05-05 11:08 | 53.49663 | 9.21741 | 22947 ft | 371 kts | 236° |
| 2026-05-05 11:08 | 53.48137 | 9.18219 | 23512 ft | 373 kts | 236° |
| 2026-05-05 11:08 | 53.46608 | 9.14696 | 23976 ft | 375 kts | 236° |
| 2026-05-05 11:09 | 53.45065 | 9.11149 | 24445 ft | 377 kts | 236° |
| 2026-05-05 11:09 | 53.43512 | 9.07581 | 24906 ft | 379 kts | 236° |
| 2026-05-05 11:09 | 53.41946 | 9.03989 | 25377 ft | 381 kts | 236° |
| 2026-05-05 11:09 | 53.40398 | 9.00439 | 25829 ft | 382 kts | 236° |
| 2026-05-05 11:10 | 53.38820 | 8.96832 | 26281 ft | 384 kts | 236° |
| 2026-05-05 11:10 | 53.37231 | 8.93207 | 26727 ft | 386 kts | 236° |
| 2026-05-05 11:10 | 53.35650 | 8.89565 | 27165 ft | 387 kts | 238° |
| 2026-05-05 11:10 | 53.34348 | 8.85636 | 27591 ft | 387 kts | 247° |
| 2026-05-05 11:11 | 53.33390 | 8.81406 | 28025 ft | 389 kts | 250° |
| 2026-05-05 11:11 | 53.32468 | 8.77194 | 28448 ft | 390 kts | 250° |
| 2026-05-05 11:11 | 53.31517 | 8.72909 | 28884 ft | 392 kts | 250° |
| 2026-05-05 11:11 | 53.30559 | 8.68637 | 29295 ft | 394 kts | 250° |
| 2026-05-05 11:12 | 53.29593 | 8.64330 | 29703 ft | 396 kts | 250° |
| 2026-05-05 11:12 | 53.28633 | 8.59998 | 30076 ft | 398 kts | 250° |
| 2026-05-05 11:12 | 53.27675 | 8.55642 | 30400 ft | 399 kts | 250° |
| 2026-05-05 11:12 | 53.26730 | 8.51317 | 30694 ft | 401 kts | 250° |
| 2026-05-05 11:13 | 53.25798 | 8.46911 | 30997 ft | 403 kts | 251° |
| 2026-05-05 11:13 | 53.24930 | 8.42435 | 31304 ft | 405 kts | 252° |
| 2026-05-05 11:13 | 53.24106 | 8.37939 | 31683 ft | 404 kts | 252° |
| 2026-05-05 11:13 | 53.23306 | 8.33504 | 32111 ft | 403 kts | 252° |
| 2026-05-05 11:14 | 53.22489 | 8.29026 | 32548 ft | 401 kts | 252° |
| 2026-05-05 11:14 | 53.21665 | 8.24574 | 32967 ft | 400 kts | 252° |
| 2026-05-05 11:14 | 53.20832 | 8.20142 | 33394 ft | 399 kts | 251° |
| 2026-05-05 11:14 | 53.19992 | 8.15746 | 33807 ft | 398 kts | 251° |
| 2026-05-05 11:15 | 53.19145 | 8.11356 | 34175 ft | 397 kts | 251° |
| 2026-05-05 11:15 | 53.18304 | 8.06967 | 34470 ft | 398 kts | 251° |
| 2026-05-05 11:15 | 53.17480 | 8.02615 | 34731 ft | 399 kts | 251° |
| 2026-05-05 11:15 | 53.16645 | 7.98188 | 34986 ft | 400 kts | 251° |
| 2026-05-05 11:16 | 53.15806 | 7.93753 | 35221 ft | 401 kts | 251° |
| 2026-05-05 11:16 | 53.14963 | 7.89296 | 35457 ft | 403 kts | 251° |
| 2026-05-05 11:16 | 53.14120 | 7.84840 | 35693 ft | 404 kts | 251° |
| 2026-05-05 11:16 | 53.13279 | 7.80416 | 35925 ft | 405 kts | 251° |
| 2026-05-05 11:17 | 53.12420 | 7.75923 | 36157 ft | 406 kts | 251° |
| 2026-05-05 11:17 | 53.11560 | 7.71436 | 36378 ft | 408 kts | 251° |
| 2026-05-05 11:17 | 53.10697 | 7.66938 | 36591 ft | 409 kts | 251° |
| 2026-05-05 11:17 | 53.09828 | 7.62417 | 36808 ft | 410 kts | 251° |
| 2026-05-05 11:18 | 53.08957 | 7.57889 | 37018 ft | 411 kts | 251° |
| 2026-05-05 11:18 | 53.08081 | 7.53358 | 37231 ft | 412 kts | 251° |
| 2026-05-05 11:18 | 53.07199 | 7.48805 | 37435 ft | 413 kts | 251° |
| 2026-05-05 11:18 | 53.06312 | 7.44241 | 37637 ft | 414 kts | 251° |
| 2026-05-05 11:19 | 53.05419 | 7.39676 | 37852 ft | 415 kts | 251° |
| 2026-05-05 11:19 | 53.03632 | 7.30576 | 37946 ft | 417 kts | 251° |
| 2026-05-05 11:20 | 53.01821 | 7.21413 | 37949 ft | 417 kts | 251° |
| 2026-05-05 11:20 | 52.99990 | 7.12265 | 37945 ft | 417 kts | 251° |
| 2026-05-05 11:21 | 52.98144 | 7.03203 | 37950 ft | 417 kts | 250° |
| 2026-05-05 11:21 | 52.96266 | 6.94078 | 37955 ft | 417 kts | 250° |
| 2026-05-05 11:22 | 52.94385 | 6.84939 | 37961 ft | 418 kts | 250° |
| 2026-05-05 11:22 | 52.92515 | 6.75870 | 37966 ft | 418 kts | 250° |
| 2026-05-05 11:23 | 52.90617 | 6.66752 | 37968 ft | 418 kts | 250° |
| 2026-05-05 11:23 | 52.88722 | 6.57642 | 37965 ft | 418 kts | 250° |
| 2026-05-05 11:24 | 52.86818 | 6.48524 | 37968 ft | 418 kts | 250° |
| 2026-05-05 11:24 | 52.84919 | 6.39488 | 37961 ft | 418 kts | 250° |
| 2026-05-05 11:25 | 52.82995 | 6.30388 | 37956 ft | 419 kts | 250° |
| 2026-05-05 11:25 | 52.81069 | 6.21274 | 37954 ft | 419 kts | 250° |
| 2026-05-05 11:26 | 52.79150 | 6.12270 | 37955 ft | 419 kts | 250° |
| 2026-05-05 11:26 | 52.77186 | 6.03163 | 37956 ft | 419 kts | 249° |
| 2026-05-05 11:27 | 52.74972 | 5.94251 | 37955 ft | 419 kts | 245° |
| 2026-05-05 11:27 | 52.72574 | 5.85526 | 37956 ft | 419 kts | 245° |
| 2026-05-05 11:28 | 52.70159 | 5.76751 | 37957 ft | 420 kts | 245° |
| 2026-05-05 11:28 | 52.67781 | 5.67934 | 37958 ft | 420 kts | 245° |
| 2026-05-05 11:29 | 52.65421 | 5.59152 | 37954 ft | 421 kts | 245° |
| 2026-05-05 11:29 | 52.63042 | 5.50332 | 37958 ft | 422 kts | 245° |
| 2026-05-05 11:30 | 52.60645 | 5.41505 | 37962 ft | 422 kts | 245° |
| 2026-05-05 11:30 | 52.58234 | 5.32681 | 37960 ft | 422 kts | 245° |
| 2026-05-05 11:31 | 52.55838 | 5.23945 | 37962 ft | 423 kts | 245° |
| 2026-05-05 11:31 | 52.53417 | 5.15127 | 37965 ft | 423 kts | 245° |
| 2026-05-05 11:32 | 52.50986 | 5.06314 | 37964 ft | 423 kts | 245° |
| 2026-05-05 11:32 | 52.48640 | 4.97826 | 37965 ft | 423 kts | 245° |
| 2026-05-05 11:33 | 52.46198 | 4.89028 | 37963 ft | 423 kts | 245° |
| 2026-05-05 11:33 | 52.43743 | 4.80231 | 37955 ft | 423 kts | 245° |
| 2026-05-05 11:34 | 52.41297 | 4.71506 | 37953 ft | 424 kts | 245° |
| 2026-05-05 11:34 | 52.38827 | 4.62735 | 37956 ft | 424 kts | 244° |
| 2026-05-05 11:35 | 52.36344 | 4.53937 | 37956 ft | 424 kts | 245° |
| 2026-05-05 11:35 | 52.33878 | 4.45218 | 37957 ft | 424 kts | 245° |
| 2026-05-05 11:36 | 52.31387 | 4.36454 | 37956 ft | 425 kts | 244° |
| 2026-05-05 11:36 | 52.28887 | 4.27689 | 37955 ft | 425 kts | 244° |
| 2026-05-05 11:37 | 52.26380 | 4.18941 | 37964 ft | 425 kts | 244° |
| 2026-05-05 11:37 | 52.23865 | 4.10189 | 37969 ft | 426 kts | 244° |
| 2026-05-05 11:38 | 52.21358 | 4.01492 | 37964 ft | 426 kts | 244° |
| 2026-05-05 11:38 | 52.18816 | 3.92715 | 37970 ft | 426 kts | 244° |
| 2026-05-05 11:39 | 52.16287 | 3.84044 | 37973 ft | 426 kts | 244° |
| 2026-05-05 11:39 | 52.13741 | 3.75301 | 37854 ft | 427 kts | 244° |
| 2026-05-05 11:39 | 52.12463 | 3.70928 | 37575 ft | 426 kts | 244° |
| 2026-05-05 11:40 | 52.11188 | 3.66577 | 37300 ft | 426 kts | 244° |
| 2026-05-05 11:40 | 52.09929 | 3.62285 | 37038 ft | 425 kts | 244° |
| 2026-05-05 11:40 | 52.08653 | 3.57947 | 36771 ft | 425 kts | 244° |
| 2026-05-05 11:40 | 52.07375 | 3.53616 | 36511 ft | 424 kts | 244° |
| 2026-05-05 11:41 | 52.06095 | 3.49284 | 36249 ft | 424 kts | 244° |
| 2026-05-05 11:41 | 52.04813 | 3.44960 | 35989 ft | 423 kts | 243° |
| 2026-05-05 11:41 | 52.03533 | 3.40646 | 35377 ft | 425 kts | 243° |
| 2026-05-05 11:41 | 52.02245 | 3.36302 | 34536 ft | 428 kts | 243° |
| 2026-05-05 11:42 | 52.00948 | 3.31929 | 33711 ft | 430 kts | 243° |
| 2026-05-05 11:42 | 51.99671 | 3.27640 | 33190 ft | 423 kts | 243° |
| 2026-05-05 11:42 | 51.98395 | 3.23362 | 32624 ft | 418 kts | 243° |
| 2026-05-05 11:42 | 51.97211 | 3.19078 | 32065 ft | 414 kts | 249° |
| 2026-05-05 11:43 | 51.96446 | 3.14587 | 31506 ft | 411 kts | 257° |
| 2026-05-05 11:43 | 51.96091 | 3.09996 | 30950 ft | 409 kts | 261° |
| 2026-05-05 11:43 | 51.95804 | 3.05464 | 30405 ft | 406 kts | 261° |
| 2026-05-05 11:43 | 51.95512 | 3.00911 | 29826 ft | 402 kts | 261° |
| 2026-05-05 11:44 | 51.95220 | 2.96429 | 29271 ft | 398 kts | 261° |
| 2026-05-05 11:44 | 51.95024 | 2.93479 | 28917 ft | 395 kts | 261° |
| 2026-05-05 11:44 | 51.94732 | 2.89087 | 28409 ft | 390 kts | 261° |
| 2026-05-05 11:44 | 51.94442 | 2.84738 | 27873 ft | 385 kts | 261° |
| 2026-05-05 11:45 | 51.94058 | 2.79013 | 27247 ft | 385 kts | 261° |
| 2026-05-05 11:45 | 51.93864 | 2.76154 | 26928 ft | 385 kts | 261° |
| 2026-05-05 11:45 | 51.93569 | 2.71846 | 26463 ft | 383 kts | 261° |
| 2026-05-05 11:45 | 51.93275 | 2.67565 | 26009 ft | 381 kts | 262° |
| 2026-05-05 11:46 | 51.92984 | 2.63303 | 25556 ft | 379 kts | 261° |
| 2026-05-05 11:46 | 51.92692 | 2.59046 | 25118 ft | 377 kts | 261° |
| 2026-05-05 11:46 | 51.92404 | 2.54835 | 24674 ft | 375 kts | 262° |
| 2026-05-05 11:46 | 51.92114 | 2.50637 | 24248 ft | 373 kts | 262° |
| 2026-05-05 11:47 | 51.91820 | 2.46461 | 23825 ft | 372 kts | 261° |
| 2026-05-05 11:47 | 51.91528 | 2.42348 | 23393 ft | 370 kts | 261° |
| 2026-05-05 11:47 | 51.91235 | 2.38217 | 22890 ft | 368 kts | 261° |
| 2026-05-05 11:47 | 51.90941 | 2.34105 | 22378 ft | 366 kts | 262° |
| 2026-05-05 11:48 | 51.90543 | 2.25908 | 21368 ft | 363 kts | 266° |
| 2026-05-05 11:48 | 51.90464 | 2.21829 | 20881 ft | 361 kts | 267° |
| 2026-05-05 11:48 | 51.90411 | 2.17827 | 20498 ft | 358 kts | 267° |
| 2026-05-05 11:49 | 51.90357 | 2.13793 | 20270 ft | 358 kts | 267° |
| 2026-05-05 11:49 | 51.90289 | 2.09772 | 19915 ft | 356 kts | 267° |
| 2026-05-05 11:49 | 51.90204 | 2.05766 | 19550 ft | 354 kts | 266° |
| 2026-05-05 11:49 | 51.90109 | 2.01775 | 19185 ft | 353 kts | 266° |
| 2026-05-05 11:50 | 51.90011 | 1.97862 | 18829 ft | 351 kts | 266° |
| 2026-05-05 11:50 | 51.89910 | 1.93902 | 18468 ft | 350 kts | 266° |
| 2026-05-05 11:50 | 51.90059 | 1.89972 | 18131 ft | 349 kts | 278° |
| 2026-05-05 11:50 | 51.90431 | 1.86092 | 17691 ft | 348 kts | 278° |
| 2026-05-05 11:51 | 51.90787 | 1.82225 | 17246 ft | 345 kts | 278° |
| 2026-05-05 11:51 | 51.91131 | 1.78419 | 16854 ft | 343 kts | 278° |
| 2026-05-05 11:51 | 51.91478 | 1.74594 | 16437 ft | 341 kts | 278° |
| 2026-05-05 11:51 | 51.91825 | 1.70800 | 16026 ft | 339 kts | 278° |
| 2026-05-05 11:52 | 51.92172 | 1.67025 | 15619 ft | 337 kts | 278° |
| 2026-05-05 11:52 | 51.92516 | 1.63328 | 15222 ft | 335 kts | 278° |
| 2026-05-05 11:52 | 51.92864 | 1.59594 | 14832 ft | 333 kts | 278° |
| 2026-05-05 11:52 | 51.93207 | 1.55897 | 14441 ft | 331 kts | 278° |
| 2026-05-05 11:53 | 51.93544 | 1.52215 | 14059 ft | 329 kts | 278° |
| 2026-05-05 11:53 | 51.93877 | 1.48542 | 13663 ft | 327 kts | 278° |
| 2026-05-05 11:53 | 51.94203 | 1.44936 | 13234 ft | 325 kts | 278° |
| 2026-05-05 11:53 | 51.94532 | 1.41304 | 12810 ft | 323 kts | 278° |
| 2026-05-05 11:54 | 51.94858 | 1.37694 | 12395 ft | 321 kts | 278° |
| 2026-05-05 11:54 | 51.95175 | 1.34166 | 11988 ft | 319 kts | 278° |
| 2026-05-05 11:54 | 51.95496 | 1.30604 | 11583 ft | 318 kts | 278° |
| 2026-05-05 11:54 | 51.95813 | 1.27077 | 11180 ft | 316 kts | 278° |
| 2026-05-05 11:55 | 51.96126 | 1.23554 | 10784 ft | 313 kts | 278° |
| 2026-05-05 11:55 | 51.96436 | 1.20059 | 10393 ft | 311 kts | 278° |
| 2026-05-05 11:55 | 51.96743 | 1.16594 | 10004 ft | 309 kts | 278° |
| 2026-05-05 11:55 | 51.97047 | 1.13152 | 9590 ft | 307 kts | 278° |
| 2026-05-05 11:56 | 51.97339 | 1.09808 | 9167 ft | 296 kts | 279° |
| 2026-05-05 11:56 | 51.97618 | 1.06605 | 8960 ft | 275 kts | 279° |
| 2026-05-05 11:56 | 51.97875 | 1.03661 | 8973 ft | 256 kts | 279° |
| 2026-05-05 11:56 | 51.98121 | 1.00834 | 8974 ft | 251 kts | 278° |
| 2026-05-05 11:57 | 51.98355 | 0.98028 | 8973 ft | 250 kts | 278° |
| 2026-05-05 11:57 | 51.98581 | 0.95265 | 8977 ft | 250 kts | 278° |
| 2026-05-05 11:57 | 51.98809 | 0.92466 | 8972 ft | 250 kts | 278° |
| 2026-05-05 11:57 | 51.99037 | 0.89666 | 8976 ft | 250 kts | 278° |
| 2026-05-05 11:58 | 51.99266 | 0.86867 | 8976 ft | 250 kts | 278° |
| 2026-05-05 11:58 | 51.99496 | 0.84064 | 8969 ft | 250 kts | 278° |
| 2026-05-05 11:58 | 51.99726 | 0.81269 | 8830 ft | 250 kts | 278° |
| 2026-05-05 11:58 | 51.99954 | 0.78477 | 8645 ft | 249 kts | 278° |
| 2026-05-05 11:59 | 52.00174 | 0.75717 | 8469 ft | 249 kts | 278° |
| 2026-05-05 11:59 | 52.00395 | 0.72934 | 8289 ft | 248 kts | 278° |
| 2026-05-05 11:59 | 52.00615 | 0.70157 | 8109 ft | 247 kts | 278° |
| 2026-05-05 11:59 | 52.00831 | 0.67385 | 7994 ft | 247 kts | 278° |
| 2026-05-05 12:00 | 52.01046 | 0.64634 | 7974 ft | 246 kts | 278° |
| 2026-05-05 12:00 | 52.01262 | 0.61861 | 7976 ft | 247 kts | 278° |
| 2026-05-05 12:00 | 52.01305 | 0.59084 | 7974 ft | 248 kts | 262° |
| 2026-05-05 12:00 | 52.00941 | 0.56375 | 7971 ft | 249 kts | 257° |
| 2026-05-05 12:01 | 52.00508 | 0.53646 | 7975 ft | 249 kts | 256° |
| 2026-05-05 12:01 | 52.00068 | 0.50929 | 7974 ft | 249 kts | 256° |
| 2026-05-05 12:01 | 51.99629 | 0.48207 | 7977 ft | 249 kts | 256° |
| 2026-05-05 12:01 | 51.99191 | 0.45487 | 7976 ft | 249 kts | 256° |
| 2026-05-05 12:02 | 51.98751 | 0.42764 | 7977 ft | 249 kts | 256° |
| 2026-05-05 12:02 | 51.98312 | 0.40048 | 7978 ft | 249 kts | 256° |
| 2026-05-05 12:02 | 51.97872 | 0.37323 | 7973 ft | 249 kts | 256° |
| 2026-05-05 12:02 | 51.97438 | 0.34633 | 7966 ft | 249 kts | 256° |
| 2026-05-05 12:03 | 51.96999 | 0.31906 | 7974 ft | 249 kts | 256° |
| 2026-05-05 12:03 | 51.96561 | 0.29187 | 7969 ft | 249 kts | 256° |
| 2026-05-05 12:03 | 51.96119 | 0.26441 | 7673 ft | 252 kts | 256° |
| 2026-05-05 12:03 | 51.95678 | 0.23712 | 7285 ft | 254 kts | 256° |
| 2026-05-05 12:04 | 51.95149 | 0.20967 | 6886 ft | 257 kts | 243° |
| 2026-05-05 12:04 | 51.94137 | 0.18589 | 6532 ft | 253 kts | 232° |
| 2026-05-05 12:04 | 51.93061 | 0.16411 | 6139 ft | 247 kts | 231° |
| 2026-05-05 12:04 | 51.91982 | 0.14246 | 5730 ft | 249 kts | 231° |
| 2026-05-05 12:05 | 51.90893 | 0.12039 | 5239 ft | 248 kts | 231° |
| 2026-05-05 12:05 | 51.89828 | 0.09854 | 4744 ft | 246 kts | 231° |
| 2026-05-05 12:05 | 51.88773 | 0.07673 | 4258 ft | 245 kts | 231° |
| 2026-05-05 12:05 | 51.87735 | 0.05539 | 4002 ft | 233 kts | 231° |
| 2026-05-05 12:06 | 51.86783 | 0.03599 | 3963 ft | 214 kts | 231° |
| 2026-05-05 12:06 | 51.85890 | 0.01787 | 3767 ft | 200 kts | 231° |
| 2026-05-05 12:06 | 51.85017 | 0.00060 | 3348 ft | 197 kts | 226° |
| 2026-05-05 12:06 | 51.83831 | -0.00974 | 3009 ft | 194 kts | 186° |
| 2026-05-05 12:07 | 51.82482 | -0.01092 | 3009 ft | 195 kts | 178° |
| 2026-05-05 12:07 | 51.81121 | -0.01045 | 3008 ft | 195 kts | 176° |
| 2026-05-05 12:07 | 51.79831 | -0.00654 | 2986 ft | 189 kts | 149° |
| 2026-05-05 12:07 | 51.78963 | 0.00810 | 2689 ft | 181 kts | 109° |
| 2026-05-05 12:08 | 51.78712 | 0.02799 | 2379 ft | 180 kts | 93° |
| 2026-05-05 12:08 | 51.78602 | 0.04807 | 2128 ft | 175 kts | 92° |
| 2026-05-05 12:08 | 51.78512 | 0.06691 | 2053 ft | 163 kts | 90° |
| 2026-05-05 12:08 | 51.78529 | 0.08490 | 2000 ft | 157 kts | 69° |
| 2026-05-05 12:09 | 51.79249 | 0.09689 | 2007 ft | 152 kts | 32° |
| 2026-05-05 12:09 | 51.80047 | 0.10768 | 2016 ft | 150 kts | 43° |
| 2026-05-05 12:09 | 51.80798 | 0.11929 | 2016 ft | 149 kts | 43° |
| 2026-05-05 12:09 | 51.81558 | 0.13079 | 1949 ft | 149 kts | 42° |
| 2026-05-05 12:10 | 51.82308 | 0.14206 | 1814 ft | 149 kts | 42° |
| 2026-05-05 12:10 | 51.83068 | 0.15346 | 1629 ft | 148 kts | 43° |
| 2026-05-05 12:10 | 51.83797 | 0.16436 | 1443 ft | 137 kts | 42° |
| 2026-05-05 12:10 | 51.84481 | 0.17458 | 1245 ft | 131 kts | 42° |
| 2026-05-05 12:11 | 51.85150 | 0.18460 | 1073 ft | 130 kts | 43° |
| 2026-05-05 12:11 | 51.85810 | 0.19447 | 900 ft | 129 kts | 42° |
| 2026-05-05 12:11 | 51.86468 | 0.20434 | 678 ft | 128 kts | 41° |
| 2026-05-05 12:11 | 51.87113 | 0.21404 | 537 ft | 129 kts | 41° |
| 2026-05-05 12:12 | 51.87766 | 0.22374 | 366 ft | 126 kts | 41° |
| 2026-05-05 12:12 | 51.88336 | 0.23231 | 333 ft | 91 kts | 42° |
| 2026-05-05 12:12 | 51.88671 | 0.23728 | 333 ft | 44 kts | 42° |
| 2026-05-05 12:12 | 51.88840 | 0.24060 | 336 ft | 33 kts | 71° |
| 2026-05-05 12:13 | 51.88893 | 0.24308 | 349 ft | 13 kts | 71° |
| 2026-05-05 12:13 | 51.88916 | 0.24417 | 344 ft | 7 kts | 72° |
| 2026-05-05 12:13 | 51.88916 | 0.24491 | 351 ft | 6 kts | 107° |
| 2026-05-05 12:13 | 51.88912 | 0.24553 | 343 ft | 8 kts | 79° |
| 2026-05-05 12:14 | 51.88945 | 0.24632 | 354 ft | 9 kts | 44° |
| 2026-05-05 12:14 | 51.89002 | 0.24716 | 345 ft | 13 kts | 42° |
| 2026-05-05 12:14 | 51.89015 | 0.24849 | 348 ft | 14 kts | 118° |
| 2026-05-05 12:14 | 51.88963 | 0.24968 | 346 ft | 10 kts | 127° |
| 2026-05-05 12:15 | 51.88941 | 0.25041 | 352 ft | 6 kts | 113° |
| 2026-05-05 12:15 | 51.88929 | 0.25093 | 349 ft | 4 kts | 85° |
| 2026-05-05 12:15 | 51.88953 | 0.25145 | 349 ft | 7 kts | 45° |
| 2026-05-05 12:15 | 51.88973 | 0.25175 | 349 ft | 2 kts | 42° |
| 2026-05-05 12:16 | 51.88974 | 0.25176 | 349 ft | 0 kts | 42° |